sensor_id;sensor_type;location;lat;lon;timestamp;temperature;humidity
13354;DHT22;6746;50.892;4.064;2023-12-14T00:01:14;9.90;99.90
13354;DHT22;6746;50.892;4.064;2023-12-14T00:03:52;9.80;99.90
13354;DHT22;6746;50.892;4.064;2023-12-14T00:06:33;9.80;99.90
13354;DHT22;6746;50.892;4.064;2023-12-14T00:09:11;9.80;99.90
13354;DHT22;6746;50.892;4.064;2023-12-14T00:11:52;9.80;99.90
13354;DHT22;6746;50.892;4.064;2023-12-14T00:14:30;9.80;99.90
13354;DHT22;6746;50.892;4.064;2023-12-14T00:17:13;9.80;99.90
13354;DHT22;6746;50.892;4.064;2023-12-14T00:19:52;9.80;99.90
13354;DHT22;6746;50.892;4.064;2023-12-14T00:22:33;9.80;99.90
13354;DHT22;6746;50.892;4.064;2023-12-14T00:25:11;9.80;99.90
13354;DHT22;6746;50.892;4.064;2023-12-14T00:27:54;9.80;99.90
13354;DHT22;6746;50.892;4.064;2023-12-14T00:30:32;9.80;99.90
13354;DHT22;6746;50.892;4.064;2023-12-14T00:33:10;9.80;99.90
13354;DHT22;6746;50.892;4.064;2023-12-14T00:35:48;9.80;99.90
13354;DHT22;6746;50.892;4.064;2023-12-14T00:38:31;9.80;99.90
13354;DHT22;6746;50.892;4.064;2023-12-14T00:41:10;9.80;99.90
13354;DHT22;6746;50.892;4.064;2023-12-14T00:43:51;9.80;99.90
13354;DHT22;6746;50.892;4.064;2023-12-14T00:46:29;9.80;99.90
13354;DHT22;6746;50.892;4.064;2023-12-14T00:49:07;9.80;99.90
13354;DHT22;6746;50.892;4.064;2023-12-14T00:51:46;9.80;99.90
13354;DHT22;6746;50.892;4.064;2023-12-14T00:54:34;9.80;99.90
13354;DHT22;6746;50.892;4.064;2023-12-14T00:57:12;9.80;99.90
13354;DHT22;6746;50.892;4.064;2023-12-14T00:59:50;9.80;99.90
13354;DHT22;6746;50.892;4.064;2023-12-14T01:02:28;9.80;99.90
13354;DHT22;6746;50.892;4.064;2023-12-14T01:05:07;9.80;99.90
13354;DHT22;6746;50.892;4.064;2023-12-14T01:07:48;9.80;99.90
13354;DHT22;6746;50.892;4.064;2023-12-14T01:10:26;9.80;99.90
13354;DHT22;6746;50.892;4.064;2023-12-14T01:13:07;9.80;99.90
13354;DHT22;6746;50.892;4.064;2023-12-14T01:15:45;9.80;99.90
13354;DHT22;6746;50.892;4.064;2023-12-14T01:18:26;9.80;99.90
13354;DHT22;6746;50.892;4.064;2023-12-14T01:21:04;9.80;99.90
13354;DHT22;6746;50.892;4.064;2023-12-14T01:23:47;9.80;99.90
13354;DHT22;6746;50.892;4.064;2023-12-14T01:26:26;9.80;99.90
13354;DHT22;6746;50.892;4.064;2023-12-14T01:29:06;9.80;99.90
13354;DHT22;6746;50.892;4.064;2023-12-14T01:31:44;9.70;99.90
13354;DHT22;6746;50.892;4.064;2023-12-14T01:34:28;9.70;99.90
13354;DHT22;6746;50.892;4.064;2023-12-14T01:37:06;9.70;99.90
13354;DHT22;6746;50.892;4.064;2023-12-14T01:39:47;9.70;99.90
13354;DHT22;6746;50.892;4.064;2023-12-14T01:42:25;9.60;99.90
13354;DHT22;6746;50.892;4.064;2023-12-14T01:45:06;9.60;99.90
13354;DHT22;6746;50.892;4.064;2023-12-14T01:47:44;9.50;99.90
13354;DHT22;6746;50.892;4.064;2023-12-14T01:50:22;9.50;99.90
13354;DHT22;6746;50.892;4.064;2023-12-14T01:53:01;9.50;99.90
13354;DHT22;6746;50.892;4.064;2023-12-14T01:55:42;9.50;99.90
13354;DHT22;6746;50.892;4.064;2023-12-14T01:58:20;9.50;99.90
13354;DHT22;6746;50.892;4.064;2023-12-14T02:01:18;9.40;99.90
13354;DHT22;6746;50.892;4.064;2023-12-14T02:03:55;9.40;99.90
13354;DHT22;6746;50.892;4.064;2023-12-14T02:06:43;9.30;99.90
13354;DHT22;6746;50.892;4.064;2023-12-14T02:09:31;9.30;99.90
13354;DHT22;6746;50.892;4.064;2023-12-14T02:12:15;9.30;99.90
13354;DHT22;6746;50.892;4.064;2023-12-14T02:14:55;9.20;99.90
13354;DHT22;6746;50.892;4.064;2023-12-14T02:17:37;9.20;99.90
13354;DHT22;6746;50.892;4.064;2023-12-14T02:20:15;9.10;99.90
13354;DHT22;6746;50.892;4.064;2023-12-14T02:22:56;9.00;99.90
13354;DHT22;6746;50.892;4.064;2023-12-14T02:25:34;8.90;99.90
13354;DHT22;6746;50.892;4.064;2023-12-14T02:28:12;8.90;99.90
13354;DHT22;6746;50.892;4.064;2023-12-14T02:30:50;8.80;99.90
13354;DHT22;6746;50.892;4.064;2023-12-14T02:33:31;8.80;99.90
13354;DHT22;6746;50.892;4.064;2023-12-14T02:36:09;8.80;99.90
13354;DHT22;6746;50.892;4.064;2023-12-14T02:38:55;8.80;99.90
13354;DHT22;6746;50.892;4.064;2023-12-14T02:41:33;8.70;99.90
13354;DHT22;6746;50.892;4.064;2023-12-14T02:44:16;8.60;99.90
13354;DHT22;6746;50.892;4.064;2023-12-14T02:46:54;8.70;99.90
13354;DHT22;6746;50.892;4.064;2023-12-14T02:49:43;8.60;99.90
13354;DHT22;6746;50.892;4.064;2023-12-14T02:52:21;8.70;99.90
13354;DHT22;6746;50.892;4.064;2023-12-14T02:54:59;8.60;99.90
13354;DHT22;6746;50.892;4.064;2023-12-14T02:57:42;8.50;99.90
13354;DHT22;6746;50.892;4.064;2023-12-14T03:00:20;8.40;99.90
13354;DHT22;6746;50.892;4.064;2023-12-14T03:02:58;8.30;99.90
13354;DHT22;6746;50.892;4.064;2023-12-14T03:05:36;8.30;99.90
13354;DHT22;6746;50.892;4.064;2023-12-14T03:08:23;8.30;99.90
13354;DHT22;6746;50.892;4.064;2023-12-14T03:11:01;8.20;99.90
13354;DHT22;6746;50.892;4.064;2023-12-14T03:13:44;8.20;99.90
13354;DHT22;6746;50.892;4.064;2023-12-14T03:16:23;8.10;99.90
13354;DHT22;6746;50.892;4.064;2023-12-14T03:19:01;8.00;99.90
13354;DHT22;6746;50.892;4.064;2023-12-14T03:21:39;8.00;99.90
13354;DHT22;6746;50.892;4.064;2023-12-14T03:24:17;7.90;99.90
13354;DHT22;6746;50.892;4.064;2023-12-14T03:26:56;7.90;99.90
13354;DHT22;6746;50.892;4.064;2023-12-14T03:29:39;7.90;99.90
13354;DHT22;6746;50.892;4.064;2023-12-14T03:32:17;7.90;99.90
13354;DHT22;6746;50.892;4.064;2023-12-14T03:34:55;7.90;99.90
13354;DHT22;6746;50.892;4.064;2023-12-14T03:37:34;7.80;99.90
13354;DHT22;6746;50.892;4.064;2023-12-14T03:40:15;7.80;99.90
13354;DHT22;6746;50.892;4.064;2023-12-14T03:42:53;7.80;99.90
13354;DHT22;6746;50.892;4.064;2023-12-14T03:45:36;7.80;99.90
13354;DHT22;6746;50.892;4.064;2023-12-14T03:48:14;7.80;99.90
13354;DHT22;6746;50.892;4.064;2023-12-14T03:50:52;7.80;99.90
13354;DHT22;6746;50.892;4.064;2023-12-14T03:53:30;7.70;99.90
13354;DHT22;6746;50.892;4.064;2023-12-14T03:56:11;7.70;99.90
13354;DHT22;6746;50.892;4.064;2023-12-14T03:58:49;7.70;99.90
13354;DHT22;6746;50.892;4.064;2023-12-14T04:01:27;7.60;99.90
13354;DHT22;6746;50.892;4.064;2023-12-14T04:04:06;7.60;99.90
13354;DHT22;6746;50.892;4.064;2023-12-14T04:06:47;7.60;99.90
13354;DHT22;6746;50.892;4.064;2023-12-14T04:09:25;7.60;99.90
13354;DHT22;6746;50.892;4.064;2023-12-14T04:12:13;7.50;99.90
13354;DHT22;6746;50.892;4.064;2023-12-14T04:15:00;7.50;99.90
13354;DHT22;6746;50.892;4.064;2023-12-14T04:17:48;7.40;99.90
13354;DHT22;6746;50.892;4.064;2023-12-14T04:20:37;7.40;99.90
13354;DHT22;6746;50.892;4.064;2023-12-14T04:23:25;7.40;99.90
13354;DHT22;6746;50.892;4.064;2023-12-14T04:26:13;7.40;99.90
13354;DHT22;6746;50.892;4.064;2023-12-14T04:29:01;7.30;99.90
13354;DHT22;6746;50.892;4.064;2023-12-14T04:31:40;7.40;99.90
13354;DHT22;6746;50.892;4.064;2023-12-14T04:34:18;7.40;99.90
13354;DHT22;6746;50.892;4.064;2023-12-14T04:36:59;7.40;99.90
13354;DHT22;6746;50.892;4.064;2023-12-14T04:39:37;7.40;99.90
13354;DHT22;6746;50.892;4.064;2023-12-14T04:42:15;7.30;99.90
13354;DHT22;6746;50.892;4.064;2023-12-14T04:44:54;7.40;99.90
13354;DHT22;6746;50.892;4.064;2023-12-14T04:47:37;7.40;99.90
13354;DHT22;6746;50.892;4.064;2023-12-14T04:50:15;7.40;99.90
13354;DHT22;6746;50.892;4.064;2023-12-14T04:52:53;7.40;99.90
13354;DHT22;6746;50.892;4.064;2023-12-14T04:55:31;7.40;99.90
13354;DHT22;6746;50.892;4.064;2023-12-14T04:58:10;7.40;99.90
13354;DHT22;6746;50.892;4.064;2023-12-14T05:00:48;7.40;99.90
13354;DHT22;6746;50.892;4.064;2023-12-14T05:03:36;7.40;99.90
13354;DHT22;6746;50.892;4.064;2023-12-14T05:06:24;7.30;99.90
13354;DHT22;6746;50.892;4.064;2023-12-14T05:09:12;7.30;99.90
13354;DHT22;6746;50.892;4.064;2023-12-14T05:12:00;7.30;99.90
13354;DHT22;6746;50.892;4.064;2023-12-14T05:14:39;7.40;99.90
13354;DHT22;6746;50.892;4.064;2023-12-14T05:17:17;7.40;99.90
13354;DHT22;6746;50.892;4.064;2023-12-14T05:20:07;7.40;99.90
13354;DHT22;6746;50.892;4.064;2023-12-14T05:22:53;7.40;99.90
13354;DHT22;6746;50.892;4.064;2023-12-14T05:25:41;7.40;99.90
13354;DHT22;6746;50.892;4.064;2023-12-14T05:28:29;7.30;99.90
13354;DHT22;6746;50.892;4.064;2023-12-14T05:31:18;7.30;99.90
13354;DHT22;6746;50.892;4.064;2023-12-14T05:34:06;7.40;99.90
13354;DHT22;6746;50.892;4.064;2023-12-14T05:36:54;7.30;99.90
13354;DHT22;6746;50.892;4.064;2023-12-14T05:39:42;7.30;99.90
13354;DHT22;6746;50.892;4.064;2023-12-14T05:42:31;7.40;99.90
13354;DHT22;6746;50.892;4.064;2023-12-14T05:45:19;7.30;99.90
13354;DHT22;6746;50.892;4.064;2023-12-14T05:48:02;7.40;99.90
13354;DHT22;6746;50.892;4.064;2023-12-14T05:50:41;7.30;99.90
13354;DHT22;6746;50.892;4.064;2023-12-14T05:53:22;7.40;99.90
13354;DHT22;6746;50.892;4.064;2023-12-14T05:56:00;7.40;99.90
13354;DHT22;6746;50.892;4.064;2023-12-14T05:58:41;7.40;99.90
13354;DHT22;6746;50.892;4.064;2023-12-14T06:01:19;7.50;99.90
13354;DHT22;6746;50.892;4.064;2023-12-14T06:04:07;7.40;99.90
13354;DHT22;6746;50.892;4.064;2023-12-14T06:06:45;7.50;99.90
13354;DHT22;6746;50.892;4.064;2023-12-14T06:09:24;7.40;99.90
13354;DHT22;6746;50.892;4.064;2023-12-14T06:12:11;7.40;99.90
13354;DHT22;6746;50.892;4.064;2023-12-14T06:14:49;7.50;99.90
13354;DHT22;6746;50.892;4.064;2023-12-14T06:17:30;7.50;99.90
13354;DHT22;6746;50.892;4.064;2023-12-14T06:20:08;7.50;99.90
13354;DHT22;6746;50.892;4.064;2023-12-14T06:22:49;7.50;99.90
13354;DHT22;6746;50.892;4.064;2023-12-14T06:25:28;7.50;99.90
13354;DHT22;6746;50.892;4.064;2023-12-14T06:28:13;7.40;99.90
13354;DHT22;6746;50.892;4.064;2023-12-14T06:30:52;7.40;99.90
13354;DHT22;6746;50.892;4.064;2023-12-14T06:33:38;7.40;99.90
13354;DHT22;6746;50.892;4.064;2023-12-14T06:36:16;7.30;99.90
13354;DHT22;6746;50.892;4.064;2023-12-14T06:38:55;7.20;99.90
13354;DHT22;6746;50.892;4.064;2023-12-14T06:41:33;7.20;99.90
13354;DHT22;6746;50.892;4.064;2023-12-14T06:44:11;7.10;99.90
13354;DHT22;6746;50.892;4.064;2023-12-14T06:46:49;7.00;99.90
13354;DHT22;6746;50.892;4.064;2023-12-14T06:49:27;7.00;99.90
13354;DHT22;6746;50.892;4.064;2023-12-14T06:52:06;7.00;99.90
13354;DHT22;6746;50.892;4.064;2023-12-14T06:54:54;7.00;99.90
13354;DHT22;6746;50.892;4.064;2023-12-14T06:57:32;7.00;99.90
13354;DHT22;6746;50.892;4.064;2023-12-14T07:00:10;7.00;99.90
13354;DHT22;6746;50.892;4.064;2023-12-14T07:02:51;6.90;99.90
13354;DHT22;6746;50.892;4.064;2023-12-14T07:05:31;6.80;99.90
13354;DHT22;6746;50.892;4.064;2023-12-14T07:08:12;6.70;99.90
13354;DHT22;6746;50.892;4.064;2023-12-14T07:10:51;6.70;99.90
13354;DHT22;6746;50.892;4.064;2023-12-14T07:13:29;6.80;99.90
13354;DHT22;6746;50.892;4.064;2023-12-14T07:16:07;6.80;99.90
13354;DHT22;6746;50.892;4.064;2023-12-14T07:18:50;6.90;99.90
13354;DHT22;6746;50.892;4.064;2023-12-14T07:21:29;6.90;99.90
13354;DHT22;6746;50.892;4.064;2023-12-14T07:24:10;7.00;99.90
13354;DHT22;6746;50.892;4.064;2023-12-14T07:26:48;7.00;99.90
13354;DHT22;6746;50.892;4.064;2023-12-14T07:29:31;7.00;99.90
13354;DHT22;6746;50.892;4.064;2023-12-14T07:32:09;7.10;99.90
13354;DHT22;6746;50.892;4.064;2023-12-14T07:34:47;7.20;99.90
13354;DHT22;6746;50.892;4.064;2023-12-14T07:37:26;7.20;99.90
13354;DHT22;6746;50.892;4.064;2023-12-14T07:40:09;7.20;99.90
13354;DHT22;6746;50.892;4.064;2023-12-14T07:42:45;7.20;99.90
13354;DHT22;6746;50.892;4.064;2023-12-14T07:45:23;7.20;99.90
13354;DHT22;6746;50.892;4.064;2023-12-14T07:47:54;7.30;99.90
13354;DHT22;6746;50.892;4.064;2023-12-14T07:50:32;7.30;99.90
13354;DHT22;6746;50.892;4.064;2023-12-14T07:53:01;7.30;99.90
13354;DHT22;6746;50.892;4.064;2023-12-14T07:55:37;7.40;99.90
13354;DHT22;6746;50.892;4.064;2023-12-14T07:58:06;7.40;99.90
13354;DHT22;6746;50.892;4.064;2023-12-14T08:00:35;7.40;99.90
13354;DHT22;6746;50.892;4.064;2023-12-14T08:03:03;7.40;99.90
13354;DHT22;6746;50.892;4.064;2023-12-14T08:05:37;7.40;99.90
13354;DHT22;6746;50.892;4.064;2023-12-14T08:08:06;7.40;99.90
13354;DHT22;6746;50.892;4.064;2023-12-14T08:10:35;7.50;99.90
13354;DHT22;6746;50.892;4.064;2023-12-14T08:13:06;7.50;99.90
13354;DHT22;6746;50.892;4.064;2023-12-14T08:15:35;7.50;99.90
13354;DHT22;6746;50.892;4.064;2023-12-14T08:18:04;7.50;99.90
13354;DHT22;6746;50.892;4.064;2023-12-14T08:20:33;7.50;99.90
13354;DHT22;6746;50.892;4.064;2023-12-14T08:23:01;7.50;99.90
13354;DHT22;6746;50.892;4.064;2023-12-14T08:25:30;7.50;99.90
13354;DHT22;6746;50.892;4.064;2023-12-14T08:27:59;7.40;99.90
13354;DHT22;6746;50.892;4.064;2023-12-14T08:30:28;7.40;99.90
13354;DHT22;6746;50.892;4.064;2023-12-14T08:32:57;7.50;99.90
13354;DHT22;6746;50.892;4.064;2023-12-14T08:35:26;7.60;99.90
13354;DHT22;6746;50.892;4.064;2023-12-14T08:37:55;7.70;99.90
13354;DHT22;6746;50.892;4.064;2023-12-14T08:40:24;7.80;99.90
13354;DHT22;6746;50.892;4.064;2023-12-14T08:42:52;7.90;99.90
13354;DHT22;6746;50.892;4.064;2023-12-14T08:45:24;8.00;99.90
13354;DHT22;6746;50.892;4.064;2023-12-14T08:47:53;8.10;99.90
13354;DHT22;6746;50.892;4.064;2023-12-14T08:50:31;8.20;99.90
13354;DHT22;6746;50.892;4.064;2023-12-14T08:53:09;8.30;99.90
13354;DHT22;6746;50.892;4.064;2023-12-14T08:55:48;8.30;99.90
13354;DHT22;6746;50.892;4.064;2023-12-14T08:58:21;8.30;99.90
13354;DHT22;6746;50.892;4.064;2023-12-14T09:00:50;8.30;99.90
13354;DHT22;6746;50.892;4.064;2023-12-14T09:03:22;8.40;99.90
13354;DHT22;6746;50.892;4.064;2023-12-14T09:05:51;8.30;99.90
13354;DHT22;6746;50.892;4.064;2023-12-14T09:08:29;8.30;99.90
13354;DHT22;6746;50.892;4.064;2023-12-14T09:11:07;8.40;99.90
13354;DHT22;6746;50.892;4.064;2023-12-14T09:13:43;8.40;99.90
13354;DHT22;6746;50.892;4.064;2023-12-14T09:16:14;8.40;99.90
13354;DHT22;6746;50.892;4.064;2023-12-14T09:18:53;8.40;99.90
13354;DHT22;6746;50.892;4.064;2023-12-14T09:21:36;8.40;99.90
13354;DHT22;6746;50.892;4.064;2023-12-14T09:24:05;8.40;99.90
13354;DHT22;6746;50.892;4.064;2023-12-14T09:26:43;8.40;99.90
13354;DHT22;6746;50.892;4.064;2023-12-14T09:29:21;8.40;99.90
13354;DHT22;6746;50.892;4.064;2023-12-14T09:31:59;8.40;99.90
13354;DHT22;6746;50.892;4.064;2023-12-14T09:34:38;8.40;99.90
13354;DHT22;6746;50.892;4.064;2023-12-14T09:37:16;8.40;99.90
13354;DHT22;6746;50.892;4.064;2023-12-14T09:39:44;8.30;99.90
13354;DHT22;6746;50.892;4.064;2023-12-14T09:42:23;8.30;99.90
13354;DHT22;6746;50.892;4.064;2023-12-14T09:44:59;8.30;99.90
13354;DHT22;6746;50.892;4.064;2023-12-14T09:47:30;8.40;99.90
13354;DHT22;6746;50.892;4.064;2023-12-14T09:50:05;8.40;99.90
13354;DHT22;6746;50.892;4.064;2023-12-14T09:52:36;8.40;99.90
13354;DHT22;6746;50.892;4.064;2023-12-14T09:55:15;8.40;99.90
13354;DHT22;6746;50.892;4.064;2023-12-14T09:57:51;8.50;99.90
13354;DHT22;6746;50.892;4.064;2023-12-14T10:00:33;8.50;99.90
13354;DHT22;6746;50.892;4.064;2023-12-14T10:03:26;8.60;99.90
13354;DHT22;6746;50.892;4.064;2023-12-14T10:06:04;8.60;99.90
13354;DHT22;6746;50.892;4.064;2023-12-14T10:08:42;8.70;99.90
13354;DHT22;6746;50.892;4.064;2023-12-14T10:11:20;8.70;99.90
13354;DHT22;6746;50.892;4.064;2023-12-14T10:13:58;8.80;99.90
13354;DHT22;6746;50.892;4.064;2023-12-14T10:16:32;8.90;99.90
13354;DHT22;6746;50.892;4.064;2023-12-14T10:19:00;8.90;99.90
13354;DHT22;6746;50.892;4.064;2023-12-14T10:21:39;9.00;99.90
13354;DHT22;6746;50.892;4.064;2023-12-14T10:24:27;9.00;99.90
13354;DHT22;6746;50.892;4.064;2023-12-14T10:27:08;9.20;99.90
13354;DHT22;6746;50.892;4.064;2023-12-14T10:29:46;9.30;99.90
13354;DHT22;6746;50.892;4.064;2023-12-14T10:32:24;9.30;99.90
13354;DHT22;6746;50.892;4.064;2023-12-14T10:35:02;9.40;99.90
13354;DHT22;6746;50.892;4.064;2023-12-14T10:37:37;9.30;99.90
13354;DHT22;6746;50.892;4.064;2023-12-14T10:40:03;9.30;99.90
13354;DHT22;6746;50.892;4.064;2023-12-14T10:42:43;9.30;99.90
13354;DHT22;6746;50.892;4.064;2023-12-14T10:45:11;9.30;99.90
13354;DHT22;6746;50.892;4.064;2023-12-14T10:47:44;9.30;99.90
13354;DHT22;6746;50.892;4.064;2023-12-14T10:50:22;9.30;99.90
13354;DHT22;6746;50.892;4.064;2023-12-14T10:53:00;9.30;99.90
13354;DHT22;6746;50.892;4.064;2023-12-14T10:55:40;9.30;99.90
13354;DHT22;6746;50.892;4.064;2023-12-14T10:58:19;9.30;99.90
13354;DHT22;6746;50.892;4.064;2023-12-14T11:01:00;9.30;99.90
13354;DHT22;6746;50.892;4.064;2023-12-14T11:03:58;9.20;99.90
13354;DHT22;6746;50.892;4.064;2023-12-14T11:06:37;9.20;99.90
13354;DHT22;6746;50.892;4.064;2023-12-14T11:09:18;9.10;99.90
13354;DHT22;6746;50.892;4.064;2023-12-14T11:11:57;8.90;99.90
13354;DHT22;6746;50.892;4.064;2023-12-14T11:14:34;8.90;99.90
13354;DHT22;6746;50.892;4.064;2023-12-14T11:17:15;8.80;99.90
13354;DHT22;6746;50.892;4.064;2023-12-14T11:19:50;8.80;99.90
13354;DHT22;6746;50.892;4.064;2023-12-14T11:22:29;8.80;99.90
13354;DHT22;6746;50.892;4.064;2023-12-14T11:25:16;8.80;99.90
13354;DHT22;6746;50.892;4.064;2023-12-14T11:27:55;8.80;99.90
13354;DHT22;6746;50.892;4.064;2023-12-14T11:30:33;8.80;99.90
13354;DHT22;6746;50.892;4.064;2023-12-14T11:33:14;8.80;99.90
13354;DHT22;6746;50.892;4.064;2023-12-14T11:35:50;9.00;99.90
13354;DHT22;6746;50.892;4.064;2023-12-14T11:38:26;9.00;99.90
13354;DHT22;6746;50.892;4.064;2023-12-14T11:40:57;9.10;99.90
13354;DHT22;6746;50.892;4.064;2023-12-14T11:43:44;9.20;99.90
13354;DHT22;6746;50.892;4.064;2023-12-14T11:46:26;9.10;99.90
13354;DHT22;6746;50.892;4.064;2023-12-14T11:48:56;9.10;99.90
13354;DHT22;6746;50.892;4.064;2023-12-14T11:51:33;9.10;99.90
13354;DHT22;6746;50.892;4.064;2023-12-14T11:54:04;9.10;99.90
13354;DHT22;6746;50.892;4.064;2023-12-14T11:56:34;9.10;99.90
13354;DHT22;6746;50.892;4.064;2023-12-14T11:59:12;9.10;99.90
13354;DHT22;6746;50.892;4.064;2023-12-14T12:01:56;9.20;99.90
13354;DHT22;6746;50.892;4.064;2023-12-14T12:04:33;9.20;99.90
13354;DHT22;6746;50.892;4.064;2023-12-14T12:07:21;9.30;99.90
13354;DHT22;6746;50.892;4.064;2023-12-14T12:09:59;9.30;99.90
13354;DHT22;6746;50.892;4.064;2023-12-14T12:12:37;9.40;99.90
13354;DHT22;6746;50.892;4.064;2023-12-14T12:15:15;9.30;99.90
13354;DHT22;6746;50.892;4.064;2023-12-14T12:17:44;9.40;99.90
13354;DHT22;6746;50.892;4.064;2023-12-14T12:20:12;9.40;99.90
13354;DHT22;6746;50.892;4.064;2023-12-14T12:22:49;9.40;99.90
13354;DHT22;6746;50.892;4.064;2023-12-14T12:25:18;9.40;99.90
13354;DHT22;6746;50.892;4.064;2023-12-14T12:27:49;9.50;99.90
13354;DHT22;6746;50.892;4.064;2023-12-14T12:30:18;9.40;99.90
13354;DHT22;6746;50.892;4.064;2023-12-14T12:32:56;9.50;99.90
13354;DHT22;6746;50.892;4.064;2023-12-14T12:35:30;9.50;99.90
13354;DHT22;6746;50.892;4.064;2023-12-14T12:37:59;9.60;99.90
13354;DHT22;6746;50.892;4.064;2023-12-14T12:40:37;9.60;99.90
13354;DHT22;6746;50.892;4.064;2023-12-14T12:43:08;9.60;99.90
13354;DHT22;6746;50.892;4.064;2023-12-14T12:45:37;9.70;99.90
13354;DHT22;6746;50.892;4.064;2023-12-14T12:48:06;9.70;99.90
13354;DHT22;6746;50.892;4.064;2023-12-14T12:50:35;9.70;99.90
13354;DHT22;6746;50.892;4.064;2023-12-14T12:53:07;9.80;99.90
13354;DHT22;6746;50.892;4.064;2023-12-14T12:55:36;9.80;99.90
13354;DHT22;6746;50.892;4.064;2023-12-14T12:58:14;9.80;99.90
13354;DHT22;6746;50.892;4.064;2023-12-14T13:00:43;9.80;99.90
13354;DHT22;6746;50.892;4.064;2023-12-14T13:03:11;9.70;99.90
13354;DHT22;6746;50.892;4.064;2023-12-14T13:05:40;9.70;99.90
13354;DHT22;6746;50.892;4.064;2023-12-14T13:08:09;9.70;99.90
13354;DHT22;6746;50.892;4.064;2023-12-14T13:10:38;9.70;99.90
13354;DHT22;6746;50.892;4.064;2023-12-14T13:13:07;9.80;99.90
13354;DHT22;6746;50.892;4.064;2023-12-14T13:15:45;9.80;99.90
13354;DHT22;6746;50.892;4.064;2023-12-14T13:18:24;9.70;99.90
13354;DHT22;6746;50.892;4.064;2023-12-14T13:20:52;9.70;99.90
13354;DHT22;6746;50.892;4.064;2023-12-14T13:23:20;9.70;99.90
13354;DHT22;6746;50.892;4.064;2023-12-14T13:25:49;9.60;99.90
13354;DHT22;6746;50.892;4.064;2023-12-14T13:28:18;9.60;99.90
13354;DHT22;6746;50.892;4.064;2023-12-14T13:30:50;9.60;99.90
13354;DHT22;6746;50.892;4.064;2023-12-14T13:33:19;9.70;99.90
13354;DHT22;6746;50.892;4.064;2023-12-14T13:35:48;9.60;99.90
13354;DHT22;6746;50.892;4.064;2023-12-14T13:38:16;9.60;99.90
13354;DHT22;6746;50.892;4.064;2023-12-14T13:40:55;9.50;99.90
13354;DHT22;6746;50.892;4.064;2023-12-14T13:43:31;9.50;99.90
13354;DHT22;6746;50.892;4.064;2023-12-14T13:46:00;9.50;99.90
13354;DHT22;6746;50.892;4.064;2023-12-14T13:48:29;9.50;99.90
13354;DHT22;6746;50.892;4.064;2023-12-14T13:50:57;9.50;99.90
13354;DHT22;6746;50.892;4.064;2023-12-14T13:53:29;9.60;99.90
13354;DHT22;6746;50.892;4.064;2023-12-14T13:55:58;9.60;99.90
13354;DHT22;6746;50.892;4.064;2023-12-14T13:58:34;9.50;99.90
13354;DHT22;6746;50.892;4.064;2023-12-14T14:01:03;9.50;99.90
13354;DHT22;6746;50.892;4.064;2023-12-14T14:03:34;9.50;99.90
13354;DHT22;6746;50.892;4.064;2023-12-14T14:06:03;9.50;99.90
13354;DHT22;6746;50.892;4.064;2023-12-14T14:08:37;9.50;99.90
13354;DHT22;6746;50.892;4.064;2023-12-14T14:11:06;9.50;99.90
13354;DHT22;6746;50.892;4.064;2023-12-14T14:13:35;9.50;99.90
13354;DHT22;6746;50.892;4.064;2023-12-14T14:16:04;9.50;99.90
13354;DHT22;6746;50.892;4.064;2023-12-14T14:18:33;9.40;99.90
13354;DHT22;6746;50.892;4.064;2023-12-14T14:21:01;9.40;99.90
13354;DHT22;6746;50.892;4.064;2023-12-14T14:23:30;9.40;99.90
13354;DHT22;6746;50.892;4.064;2023-12-14T14:25:59;9.40;99.90
13354;DHT22;6746;50.892;4.064;2023-12-14T14:28:38;9.40;99.90
13354;DHT22;6746;50.892;4.064;2023-12-14T14:31:16;9.40;99.90
13354;DHT22;6746;50.892;4.064;2023-12-14T14:34:04;9.30;99.90
13354;DHT22;6746;50.892;4.064;2023-12-14T14:36:42;9.30;99.90
13354;DHT22;6746;50.892;4.064;2023-12-14T14:39:13;9.30;99.90
13354;DHT22;6746;50.892;4.064;2023-12-14T14:41:42;9.30;99.90
13354;DHT22;6746;50.892;4.064;2023-12-14T14:44:16;9.20;99.90
13354;DHT22;6746;50.892;4.064;2023-12-14T14:46:44;9.20;99.90
13354;DHT22;6746;50.892;4.064;2023-12-14T14:49:33;9.20;99.90
13354;DHT22;6746;50.892;4.064;2023-12-14T14:52:06;9.20;99.90
13354;DHT22;6746;50.892;4.064;2023-12-14T14:54:35;9.20;99.90
13354;DHT22;6746;50.892;4.064;2023-12-14T14:57:09;9.20;99.90
13354;DHT22;6746;50.892;4.064;2023-12-14T14:59:38;9.10;99.90
13354;DHT22;6746;50.892;4.064;2023-12-14T15:02:07;9.10;99.90
13354;DHT22;6746;50.892;4.064;2023-12-14T15:04:36;9.00;99.90
13354;DHT22;6746;50.892;4.064;2023-12-14T15:07:05;9.00;99.90
13354;DHT22;6746;50.892;4.064;2023-12-14T15:09:34;9.00;99.90
13354;DHT22;6746;50.892;4.064;2023-12-14T15:12:12;9.00;99.90
13354;DHT22;6746;50.892;4.064;2023-12-14T15:14:41;8.90;99.90
13354;DHT22;6746;50.892;4.064;2023-12-14T15:17:09;9.00;99.90
13354;DHT22;6746;50.892;4.064;2023-12-14T15:19:41;8.90;99.90
13354;DHT22;6746;50.892;4.064;2023-12-14T15:22:10;8.90;99.90
13354;DHT22;6746;50.892;4.064;2023-12-14T15:24:39;8.80;99.90
13354;DHT22;6746;50.892;4.064;2023-12-14T15:27:08;8.90;99.90
13354;DHT22;6746;50.892;4.064;2023-12-14T15:29:37;8.80;99.90
13354;DHT22;6746;50.892;4.064;2023-12-14T15:32:06;8.80;99.90
13354;DHT22;6746;50.892;4.064;2023-12-14T15:34:35;8.80;99.90
13354;DHT22;6746;50.892;4.064;2023-12-14T15:37:03;8.70;99.90
13354;DHT22;6746;50.892;4.064;2023-12-14T15:39:32;8.80;99.90
13354;DHT22;6746;50.892;4.064;2023-12-14T15:42:01;8.70;99.90
13354;DHT22;6746;50.892;4.064;2023-12-14T15:44:40;8.70;99.90
13354;DHT22;6746;50.892;4.064;2023-12-14T15:47:11;8.70;99.90
13354;DHT22;6746;50.892;4.064;2023-12-14T15:49:42;8.70;99.90
13354;DHT22;6746;50.892;4.064;2023-12-14T15:52:24;8.70;99.90
13354;DHT22;6746;50.892;4.064;2023-12-14T15:55:02;8.70;99.90
13354;DHT22;6746;50.892;4.064;2023-12-14T15:57:41;8.60;99.90
13354;DHT22;6746;50.892;4.064;2023-12-14T16:00:10;8.60;99.90
13354;DHT22;6746;50.892;4.064;2023-12-14T16:02:48;8.60;99.90
13354;DHT22;6746;50.892;4.064;2023-12-14T16:05:36;8.60;99.90
13354;DHT22;6746;50.892;4.064;2023-12-14T16:08:24;8.60;99.90
13354;DHT22;6746;50.892;4.064;2023-12-14T16:11:12;8.60;99.90
13354;DHT22;6746;50.892;4.064;2023-12-14T16:14:00;8.50;99.90
13354;DHT22;6746;50.892;4.064;2023-12-14T16:16:49;8.50;99.90
13354;DHT22;6746;50.892;4.064;2023-12-14T16:19:37;8.50;99.90
13354;DHT22;6746;50.892;4.064;2023-12-14T16:22:20;8.50;99.90
13354;DHT22;6746;50.892;4.064;2023-12-14T16:24:59;8.50;99.90
13354;DHT22;6746;50.892;4.064;2023-12-14T16:27:40;8.50;99.90
13354;DHT22;6746;50.892;4.064;2023-12-14T16:30:18;8.50;99.90
13354;DHT22;6746;50.892;4.064;2023-12-14T16:33:05;8.40;99.90
13354;DHT22;6746;50.892;4.064;2023-12-14T16:35:51;8.40;99.90
13354;DHT22;6746;50.892;4.064;2023-12-14T16:38:29;8.30;99.90
13354;DHT22;6746;50.892;4.064;2023-12-14T16:41:20;8.30;99.90
13354;DHT22;6746;50.892;4.064;2023-12-14T16:44:07;8.20;99.90
13354;DHT22;6746;50.892;4.064;2023-12-14T16:46:46;8.20;99.90
13354;DHT22;6746;50.892;4.064;2023-12-14T16:49:26;8.20;99.90
13354;DHT22;6746;50.892;4.064;2023-12-14T16:52:05;8.20;99.90
13354;DHT22;6746;50.892;4.064;2023-12-14T16:54:44;8.10;99.90
13354;DHT22;6746;50.892;4.064;2023-12-14T16:57:31;8.20;99.90
13354;DHT22;6746;50.892;4.064;2023-12-14T17:00:10;8.20;99.90
13354;DHT22;6746;50.892;4.064;2023-12-14T17:02:49;8.20;99.90
13354;DHT22;6746;50.892;4.064;2023-12-14T17:05:27;8.20;99.90
13354;DHT22;6746;50.892;4.064;2023-12-14T17:08:05;8.20;99.90